createdAt,value
2019-06-20T00:01:29.770Z,10.25
2019-06-20T00:03:58.282Z,7.85
2019-06-20T00:06:26.704Z,12.05
2019-06-20T00:08:55.140Z,11.30
2019-06-20T00:11:23.569Z,15.65
2019-06-20T00:13:52.004Z,9.40
2019-06-20T00:16:20.432Z,10.82
2019-06-20T00:18:48.870Z,14.55
2019-06-20T00:21:17.296Z,14.33
2019-06-20T00:23:45.736Z,9.78
2019-06-20T00:26:14.234Z,12.47
2019-06-20T00:28:42.683Z,14.83
2019-06-20T00:31:11.128Z,13.85
2019-06-20T00:33:39.549Z,15.53
2019-06-20T00:36:07.999Z,15.18
2019-06-20T00:38:36.435Z,15.60
2019-06-20T00:41:04.898Z,17.52
2019-06-20T00:43:33.322Z,12.05
2019-06-20T00:46:01.754Z,14.70
2019-06-20T00:48:30.203Z,11.12
2019-06-20T00:50:58.769Z,9.58
2019-06-20T00:53:27.314Z,11.08
2019-06-20T00:55:55.757Z,12.43
2019-06-20T00:58:24.172Z,13.08
2019-06-20T01:00:52.682Z,10.53
2019-06-20T01:03:21.211Z,9.35
2019-06-20T01:05:49.631Z,13.10
2019-06-20T01:08:18.260Z,9.75
2019-06-20T01:10:46.745Z,10.65
2019-06-20T01:13:15.179Z,13.83
2019-06-20T01:15:43.615Z,13.70
2019-06-20T01:18:12.047Z,16.12
2019-06-20T01:20:40.490Z,10.28
2019-06-20T01:23:09.074Z,10.35
2019-06-20T01:25:39.346Z,9.78
2019-06-20T01:28:08.529Z,9.93
2019-06-20T01:30:37.156Z,12.70
2019-06-20T01:33:06.233Z,10.32
2019-06-20T01:35:34.665Z,16.55
2019-06-20T01:38:03.466Z,12.47
2019-06-20T01:40:31.896Z,17.92
2019-06-20T01:43:00.334Z,19.70
2019-06-20T01:45:28.766Z,15.58
2019-06-20T01:47:57.197Z,17.27
2019-06-20T01:50:25.709Z,18.67
2019-06-20T01:52:54.158Z,17.48
2019-06-20T01:55:22.676Z,19.65
2019-06-20T01:57:51.181Z,25.65
2019-06-20T02:00:40.632Z,26.23
2019-06-20T02:03:09.141Z,26.23
2019-06-20T02:05:37.577Z,27.20
2019-06-20T02:08:06.084Z,29.27
2019-06-20T02:10:34.592Z,16.70
2019-06-20T02:13:03.042Z,20.88
2019-06-20T02:15:31.480Z,22.40
2019-06-20T02:17:59.919Z,20.07
2019-06-20T02:20:33.721Z,19.25
2019-06-20T02:23:02.420Z,17.77
2019-06-20T02:25:31.077Z,15.75
2019-06-20T02:27:59.602Z,17.07
2019-06-20T02:30:28.276Z,14.38
2019-06-20T02:32:56.711Z,13.55
2019-06-20T02:35:25.214Z,13.40
2019-06-20T02:37:53.914Z,13.28
2019-06-20T02:40:22.798Z,12.98
2019-06-20T02:42:51.303Z,13.80
2019-06-20T02:45:20.121Z,14.35
2019-06-20T02:47:48.581Z,14.38
2019-06-20T02:50:17.745Z,15.45
2019-06-20T02:52:46.191Z,16.07
2019-06-20T02:55:14.969Z,16.27
2019-06-20T02:57:43.423Z,15.93
2019-06-20T03:00:13.494Z,15.30
2019-06-20T03:02:41.932Z,14.90
2019-06-20T03:05:10.918Z,15.68
2019-06-20T03:07:39.383Z,13.90
2019-06-20T03:10:08.356Z,17.48
2019-06-20T03:12:36.793Z,16.97
2019-06-20T03:15:07.180Z,13.70
2019-06-20T03:20:04.620Z,13.45
2019-06-20T03:22:33.120Z,15.47
2019-06-20T03:25:01.579Z,18.40
2019-06-20T03:27:29.993Z,21.60
2019-06-20T03:29:58.433Z,23.92
2019-06-20T03:32:26.876Z,15.85
2019-06-20T03:34:55.308Z,16.48
2019-06-20T03:37:23.752Z,16.40
2019-06-20T03:39:52.323Z,17.02
2019-06-20T03:42:20.785Z,16.27
2019-06-20T03:45:01.754Z,15.75
2019-06-20T03:47:19.430Z,17.37
2019-06-20T03:49:47.877Z,15.30
2019-06-20T03:52:16.414Z,16.27
2019-06-20T03:54:45.297Z,15.20
2019-06-20T03:57:13.784Z,16.30
2019-06-20T03:59:42.276Z,14.43
2019-06-20T04:02:10.749Z,14.87
2019-06-20T04:04:39.187Z,17.85
2019-06-20T04:07:07.622Z,14.63
2019-06-20T04:09:36.064Z,15.93
2019-06-20T04:12:04.559Z,15.72
2019-06-20T04:14:33.013Z,15.88
2019-06-20T04:17:01.475Z,17.12
2019-06-20T04:19:29.928Z,17.35
2019-06-20T04:21:58.355Z,17.95
2019-06-20T04:24:28.007Z,19.02
2019-06-20T04:26:56.526Z,21.55
2019-06-20T04:29:24.984Z,17.52
2019-06-20T04:31:53.484Z,17.98
2019-06-20T04:34:22.013Z,18.60
2019-06-20T04:36:50.521Z,20.55
2019-06-20T04:39:19.793Z,17.87
2019-06-20T04:41:48.370Z,17.67
2019-06-20T04:44:16.806Z,18.87
2019-06-20T04:46:50.223Z,18.00
2019-06-20T04:49:19.803Z,19.73
2019-06-20T04:51:48.484Z,19.95
2019-06-20T04:54:17.033Z,19.62
2019-06-20T04:56:45.475Z,24.72
2019-06-20T04:59:13.933Z,21.68
2019-06-20T05:01:42.649Z,18.85
2019-06-20T05:04:11.087Z,19.40
2019-06-20T05:06:44.073Z,20.97
2019-06-20T05:09:12.524Z,20.43
2019-06-20T05:11:40.967Z,22.90
2019-06-20T05:14:09.401Z,24.95
2019-06-20T05:16:37.859Z,23.98
2019-06-20T05:19:06.291Z,21.23
2019-06-20T05:21:34.740Z,19.27
2019-06-20T05:24:03.195Z,22.52
2019-06-20T05:26:31.639Z,21.35
2019-06-20T05:29:00.074Z,27.95
2019-06-20T05:31:29.299Z,27.27
2019-06-20T05:33:57.732Z,22.32
2019-06-20T05:36:26.163Z,24.63
2019-06-20T05:38:54.614Z,23.92
2019-06-20T05:41:23.076Z,20.25
2019-06-20T05:43:51.512Z,22.17
2019-06-20T05:46:19.948Z,21.82
2019-06-20T05:48:48.386Z,21.57
2019-06-20T05:51:16.814Z,26.95
2019-06-20T05:53:45.251Z,28.70
2019-06-20T05:56:13.698Z,26.00
2019-06-20T05:58:42.220Z,23.37
2019-06-20T06:01:11.857Z,25.17
2019-06-20T06:06:08.022Z,26.97
2019-06-20T06:08:36.457Z,33.33
2019-06-20T06:11:05.329Z,32.55
2019-06-20T06:13:33.797Z,37.85
2019-06-20T06:16:02.228Z,35.30
2019-06-20T06:18:30.661Z,35.75
2019-06-20T06:20:59.106Z,38.28
2019-06-20T06:23:27.542Z,46.42
2019-06-20T06:25:57.559Z,44.77
2019-06-20T06:28:25.988Z,44.30
2019-06-20T06:30:54.432Z,47.50
2019-06-20T06:33:22.877Z,52.55
2019-06-20T06:35:51.308Z,50.33
2019-06-20T06:38:21.915Z,56.88
2019-06-20T06:40:49.915Z,52.80
2019-06-20T06:43:18.377Z,68.15
2019-06-20T06:45:46.822Z,63.02
2019-06-20T06:48:15.435Z,67.45
2019-06-20T06:50:43.938Z,71.85
2019-06-20T06:53:12.388Z,65.90
2019-06-20T06:55:41.109Z,70.83
2019-06-20T06:58:09.555Z,68.70
2019-06-20T07:00:38.028Z,74.25
2019-06-20T07:03:07.450Z,67.72
2019-06-20T07:05:35.900Z,79.17
2019-06-20T07:08:04.596Z,74.80
2019-06-20T07:10:33.037Z,75.52
2019-06-20T07:13:01.469Z,75.42
2019-06-20T07:15:29.919Z,78.35
2019-06-20T07:17:58.371Z,77.45
2019-06-20T07:20:26.802Z,77.27
2019-06-20T07:22:55.257Z,74.45
2019-06-20T07:25:23.751Z,65.83
2019-06-20T07:27:52.525Z,69.53
2019-06-20T07:30:21.221Z,70.30
2019-06-20T07:32:49.669Z,66.12
2019-06-20T07:35:18.474Z,68.83
2019-06-20T07:37:46.908Z,63.90
2019-06-20T07:40:15.689Z,70.83
2019-06-20T07:42:44.133Z,65.47
2019-06-20T07:45:13.005Z,65.62
2019-06-20T07:47:41.484Z,62.33
2019-06-20T07:50:10.913Z,64.32
2019-06-20T07:52:39.364Z,63.83
2019-06-20T07:55:08.637Z,65.57
2019-06-20T07:57:37.176Z,60.08
2019-06-20T08:00:10.670Z,58.50
2019-06-20T08:02:39.176Z,55.60
2019-06-20T08:05:08.155Z,53.75
2019-06-20T08:07:36.775Z,49.63
2019-06-20T08:10:15.630Z,50.55
2019-06-20T08:12:44.076Z,47.35
2019-06-20T08:15:15.672Z,43.15
2019-06-20T08:17:43.991Z,40.50
2019-06-20T08:20:13.387Z,39.58
2019-06-20T08:22:41.834Z,37.23
2019-06-20T08:25:10.761Z,37.38
2019-06-20T08:27:51.514Z,35.03
2019-06-20T08:30:25.733Z,39.00
2019-06-20T08:32:54.300Z,33.47
2019-06-20T08:35:25.963Z,35.65
2019-06-20T08:37:56.088Z,35.78
2019-06-20T08:40:26.730Z,32.53
2019-06-20T08:42:57.128Z,34.35
2019-06-20T08:45:28.639Z,36.35
2019-06-20T08:47:58.308Z,35.35
2019-06-20T08:50:27.240Z,31.42
2019-06-20T08:52:57.618Z,33.95
2019-06-20T08:55:26.397Z,30.85
2019-06-20T08:57:56.271Z,32.35
2019-06-20T09:00:27.357Z,36.63
2019-06-20T09:02:56.902Z,37.95
2019-06-20T09:05:26.385Z,36.95
2019-06-20T09:07:56.481Z,37.93
2019-06-20T09:10:28.034Z,38.28
2019-06-20T09:12:57.017Z,42.38
2019-06-20T09:15:25.639Z,40.15
2019-06-20T09:17:55.204Z,42.20
2019-06-20T09:20:24.250Z,39.58
2019-06-20T09:22:54.009Z,41.75
2019-06-20T09:27:52.688Z,41.80
2019-06-20T09:30:21.144Z,40.43
2019-06-20T09:32:49.722Z,38.05
2019-06-20T09:35:18.328Z,41.80
2019-06-20T09:37:46.937Z,37.50
2019-06-20T09:40:17.009Z,37.73
2019-06-20T09:42:45.469Z,39.55
2019-06-20T09:45:15.523Z,39.60
2019-06-20T09:47:43.969Z,36.60
2019-06-20T09:50:13.966Z,34.78
2019-06-20T09:52:42.404Z,36.75
2019-06-20T09:55:11.286Z,38.15
2019-06-20T09:57:39.727Z,40.60
2019-06-20T10:00:16.764Z,31.75
2019-06-20T10:02:47.144Z,33.60
2019-06-20T10:07:43.487Z,41.68
2019-06-20T10:10:12.927Z,38.80
2019-06-20T10:12:41.577Z,40.60
2019-06-20T10:15:21.821Z,42.98
2019-06-20T10:20:19.206Z,36.00
2019-06-20T10:22:48.543Z,38.60
2019-06-20T10:25:17.521Z,33.13
2019-06-20T10:27:46.629Z,32.93
2019-06-20T10:30:18.283Z,32.55
2019-06-20T10:32:46.823Z,27.40
2019-06-20T10:35:15.773Z,25.90
2019-06-20T10:37:45.588Z,24.07
2019-06-20T10:40:15.342Z,23.10
2019-06-20T10:42:44.968Z,21.60
2019-06-20T10:45:17.563Z,19.75
2019-06-20T10:47:47.291Z,18.87
2019-06-20T10:50:16.858Z,18.77
2019-06-20T10:52:45.327Z,18.98
2019-06-20T10:55:14.112Z,19.05
2019-06-20T10:57:42.931Z,20.10
2019-06-20T11:00:26.776Z,18.53
2019-06-20T11:02:44.980Z,19.30
2019-06-20T11:05:13.833Z,19.12
2019-06-20T11:07:43.760Z,20.62
2019-06-20T11:10:13.496Z,21.02
2019-06-20T11:12:47.976Z,20.75
2019-06-20T11:17:40.453Z,15.55
2019-06-20T11:20:11.335Z,15.23
2019-06-20T11:22:41.517Z,15.57
2019-06-20T11:25:10.546Z,22.00
2019-06-20T11:27:38.980Z,18.13
2019-06-20T11:30:12.829Z,17.65
2019-06-20T11:32:41.298Z,21.73
2019-06-20T11:35:10.372Z,20.92
2019-06-20T11:37:39.663Z,21.93
2019-06-20T11:40:10.178Z,22.95
2019-06-20T11:42:39.937Z,20.77
2019-06-20T11:45:09.056Z,21.23
2019-06-20T11:47:38.261Z,20.15
2019-06-20T11:50:09.143Z,20.47
2019-06-20T11:52:41.000Z,21.67
2019-06-20T11:57:35.874Z,17.57
2019-06-20T12:00:06.662Z,18.70
2019-06-20T12:02:35.123Z,17.83
2019-06-20T12:05:05.133Z,16.35
2019-06-20T12:07:33.647Z,17.40
2019-06-20T12:10:03.937Z,17.00
2019-06-20T12:15:00.027Z,15.25
2019-06-20T12:17:28.473Z,17.18
2019-06-20T12:19:56.923Z,18.67
2019-06-20T12:22:25.359Z,18.90
2019-06-20T12:24:53.842Z,17.77
2019-06-20T12:27:22.425Z,24.92
2019-06-20T12:29:50.870Z,24.45
2019-06-20T12:32:21.166Z,22.20
2019-06-20T12:34:50.116Z,20.45
2019-06-20T12:37:18.714Z,24.43
2019-06-20T12:39:48.612Z,22.50
2019-06-20T12:42:17.215Z,22.75
2019-06-20T12:44:46.025Z,22.60
2019-06-20T12:47:14.596Z,21.65
2019-06-20T12:49:43.802Z,22.17
2019-06-20T12:52:12.256Z,22.23
2019-06-20T12:54:41.378Z,22.83
2019-06-20T12:57:10.527Z,21.05
2019-06-20T12:59:39.453Z,21.87
2019-06-20T13:04:38.293Z,22.27
2019-06-20T13:07:07.214Z,24.00
2019-06-20T13:09:35.668Z,23.47
2019-06-20T13:12:04.189Z,23.42
2019-06-20T13:14:32.631Z,26.57
2019-06-20T13:17:01.136Z,23.52
2019-06-20T13:19:29.588Z,24.35
2019-06-20T13:21:58.113Z,19.30
2019-06-20T13:24:26.559Z,19.15
2019-06-20T13:26:55.004Z,25.80
2019-06-20T13:29:23.451Z,18.85
2019-06-20T13:32:03.592Z,21.80
2019-06-20T13:34:22.080Z,23.10
2019-06-20T13:36:50.514Z,19.40
2019-06-20T13:39:18.961Z,26.12
2019-06-20T13:41:48.051Z,20.37
2019-06-20T13:44:17.631Z,22.62
2019-06-20T13:46:46.541Z,27.15
2019-06-20T13:49:15.060Z,22.50
2019-06-20T13:51:43.492Z,23.85
2019-06-20T13:54:11.948Z,18.77
2019-06-20T13:56:40.407Z,24.50
2019-06-20T13:59:10.250Z,19.63
2019-06-20T14:01:40.166Z,18.48
2019-06-20T14:04:08.908Z,22.95
2019-06-20T14:06:37.343Z,24.75
2019-06-20T14:09:07.145Z,22.85
2019-06-20T14:11:35.820Z,24.43
2019-06-20T14:14:04.831Z,24.02
2019-06-20T14:16:33.270Z,24.98
2019-06-20T14:19:01.763Z,24.70
2019-06-20T14:21:30.179Z,26.70
2019-06-20T14:23:58.626Z,24.33
2019-06-20T14:26:27.059Z,23.60
2019-06-20T14:28:55.785Z,24.75
2019-06-20T14:31:24.375Z,22.35
2019-06-20T14:33:52.872Z,22.33
2019-06-20T14:36:21.303Z,21.50
2019-06-20T14:38:49.740Z,21.13
2019-06-20T14:41:18.211Z,23.30
2019-06-20T14:43:47.801Z,21.47
2019-06-20T14:46:16.377Z,22.17
2019-06-20T14:48:45.571Z,22.40
2019-06-20T14:51:14.991Z,25.08
2019-06-20T14:53:44.420Z,22.85
2019-06-20T14:56:13.581Z,23.60
2019-06-20T14:58:42.022Z,19.02
2019-06-20T15:01:10.453Z,22.87
2019-06-20T15:03:38.896Z,22.10
2019-06-20T15:06:07.353Z,27.98
2019-06-20T15:08:35.902Z,18.20
2019-06-20T15:11:04.361Z,23.27
2019-06-20T15:13:32.795Z,22.10
2019-06-20T15:16:01.226Z,21.73
2019-06-20T15:18:29.724Z,22.67
2019-06-20T15:20:59.519Z,21.65
2019-06-20T15:23:28.075Z,27.07
2019-06-20T15:25:56.507Z,24.50
2019-06-20T15:28:24.960Z,23.83
2019-06-20T15:30:54.775Z,30.75
2019-06-20T15:35:52.981Z,29.77
2019-06-20T15:38:21.194Z,24.92
2019-06-20T15:40:50.336Z,27.10
2019-06-20T15:43:20.052Z,26.23
2019-06-20T15:45:50.228Z,28.85
2019-06-20T15:48:18.658Z,24.93
2019-06-20T15:50:47.102Z,22.67
2019-06-20T15:53:15.537Z,22.10
2019-06-20T15:55:43.989Z,22.13
2019-06-20T15:58:12.432Z,21.93
2019-06-20T16:00:40.859Z,21.68
2019-06-20T16:03:11.333Z,20.62
2019-06-20T16:05:40.631Z,21.00
2019-06-20T16:08:09.146Z,25.00
2019-06-20T16:10:37.621Z,21.70
2019-06-20T16:13:06.121Z,22.90
2019-06-20T16:15:34.548Z,23.00
2019-06-20T16:18:03.111Z,21.82
2019-06-20T16:20:31.551Z,23.05
2019-06-20T16:23:00.075Z,21.00
2019-06-20T16:25:28.511Z,19.87
2019-06-20T16:27:56.936Z,17.98
2019-06-20T16:30:25.444Z,16.80
2019-06-20T16:32:53.904Z,15.25
2019-06-20T16:35:22.501Z,16.00
2019-06-20T16:37:51.071Z,14.40
2019-06-20T16:40:22.637Z,15.45
2019-06-20T16:42:51.097Z,14.13
2019-06-20T16:45:20.121Z,14.18
2019-06-20T16:47:48.669Z,14.27
2019-06-20T16:50:17.158Z,14.40
2019-06-20T16:52:45.627Z,14.38
2019-06-20T16:55:14.502Z,13.68
2019-06-20T16:57:42.942Z,13.83
2019-06-20T17:00:12.324Z,13.58
2019-06-20T17:02:40.887Z,14.93
2019-06-20T17:05:09.757Z,13.58
2019-06-20T17:07:38.229Z,14.17
2019-06-20T17:10:07.104Z,14.60
2019-06-20T17:12:35.533Z,15.72
2019-06-20T17:15:05.200Z,9.83
2019-06-20T17:17:33.653Z,10.88
2019-06-20T17:20:02.253Z,10.25
2019-06-20T17:22:30.727Z,9.53
2019-06-20T17:24:59.226Z,9.70
2019-06-20T17:27:27.694Z,10.72
2019-06-20T17:29:56.128Z,13.08
2019-06-20T17:32:24.557Z,10.15
2019-06-20T17:34:53.001Z,11.35
2019-06-20T17:37:21.433Z,10.58
2019-06-20T17:39:49.859Z,10.93
2019-06-20T17:42:18.297Z,11.75
2019-06-20T17:44:46.744Z,11.35
2019-06-20T17:47:15.169Z,11.60
2019-06-20T17:49:43.658Z,11.08
2019-06-20T17:52:12.083Z,11.70
2019-06-20T17:54:40.534Z,12.05
2019-06-20T17:57:08.968Z,11.95
2019-06-20T17:59:37.404Z,13.90
2019-06-20T18:02:06.016Z,12.47
2019-06-20T18:04:34.529Z,12.95
2019-06-20T18:07:02.980Z,13.00
2019-06-20T18:09:31.409Z,12.82
2019-06-20T18:11:59.879Z,13.45
2019-06-20T18:14:28.349Z,12.00
2019-06-20T18:16:56.796Z,13.03
2019-06-20T18:19:25.226Z,11.75
2019-06-20T18:21:53.656Z,13.10
2019-06-20T18:24:22.091Z,11.75
2019-06-20T18:26:50.531Z,11.88
2019-06-20T18:29:18.995Z,13.43
2019-06-20T18:31:47.419Z,12.25
2019-06-20T18:34:29.073Z,14.07
2019-06-20T18:39:13.721Z,13.48
2019-06-20T18:41:42.160Z,13.18
2019-06-20T18:44:10.598Z,11.68
2019-06-20T18:46:39.060Z,12.18
2019-06-20T18:49:07.523Z,10.40
2019-06-20T18:51:35.970Z,12.30
2019-06-20T18:54:04.656Z,16.32
2019-06-20T18:56:33.324Z,11.95
2019-06-20T18:59:01.762Z,11.28
2019-06-20T19:01:30.320Z,15.20
2019-06-20T19:03:58.750Z,15.28
2019-06-20T19:06:36.097Z,11.10
2019-06-20T19:08:57.354Z,13.18
2019-06-20T19:11:25.775Z,11.57
2019-06-20T19:13:54.256Z,13.32
2019-06-20T19:16:22.709Z,14.58
2019-06-20T19:18:51.141Z,12.82
2019-06-20T19:21:19.601Z,13.25
2019-06-20T19:23:48.039Z,15.28
2019-06-20T19:26:16.480Z,19.12
2019-06-20T19:28:45.026Z,17.40
2019-06-20T19:31:13.519Z,18.20
2019-06-20T19:33:41.964Z,21.02
2019-06-20T19:36:10.387Z,14.47
2019-06-20T19:38:38.880Z,19.05
2019-06-20T19:41:07.311Z,20.97
2019-06-20T19:43:35.767Z,18.70
2019-06-20T19:46:04.196Z,22.75
2019-06-20T19:48:32.702Z,22.10
2019-06-20T19:51:01.247Z,23.83
2019-06-20T19:53:29.980Z,23.45
2019-06-20T19:55:58.438Z,22.42
2019-06-20T19:58:26.872Z,22.73
2019-06-20T20:00:55.319Z,22.00
2019-06-20T20:03:23.764Z,20.92
2019-06-20T20:05:52.189Z,26.48
2019-06-20T20:08:20.849Z,25.88
2019-06-20T20:10:50.129Z,24.87
2019-06-20T20:13:18.912Z,22.83
2019-06-20T20:15:47.695Z,23.22
2019-06-20T20:18:16.299Z,23.60
2019-06-20T20:20:47.576Z,22.25
2019-06-20T20:23:16.709Z,24.25
2019-06-20T20:25:45.382Z,23.32
2019-06-20T20:28:13.884Z,24.82
2019-06-20T20:30:42.354Z,22.65
2019-06-20T20:33:10.844Z,20.75
2019-06-20T20:35:39.314Z,22.75
2019-06-20T20:38:07.813Z,18.98
2019-06-20T20:40:36.244Z,25.32
2019-06-20T20:43:05.021Z,22.25
2019-06-20T20:45:33.482Z,18.60
2019-06-20T20:48:02.091Z,21.12
2019-06-20T20:50:30.516Z,21.27
2019-06-20T20:52:59.030Z,20.63
2019-06-20T20:55:27.457Z,18.95
2019-06-20T20:57:55.888Z,16.60
2019-06-20T21:00:33.274Z,19.80
2019-06-20T21:03:01.713Z,21.80
2019-06-20T21:05:30.155Z,19.92
2019-06-20T21:07:58.599Z,21.02
2019-06-20T21:10:27.053Z,20.90
2019-06-20T21:12:55.494Z,19.92
2019-06-20T21:15:25.074Z,20.02
2019-06-20T21:17:55.692Z,21.02
2019-06-20T21:20:23.969Z,20.23
2019-06-20T21:22:52.434Z,21.23
2019-06-20T21:25:21.135Z,20.45
2019-06-20T21:27:49.599Z,20.48
2019-06-20T21:30:18.349Z,19.32
2019-06-20T21:32:46.784Z,19.12
2019-06-20T21:35:15.659Z,23.75
2019-06-20T21:37:44.095Z,21.50
2019-06-20T21:40:12.714Z,23.57
2019-06-20T21:42:41.143Z,22.00
2019-06-20T21:45:10.501Z,24.77
2019-06-20T21:47:38.954Z,24.43
2019-06-20T21:50:08.036Z,20.45
2019-06-20T21:52:36.567Z,22.43
2019-06-20T21:55:08.491Z,21.20
2019-06-20T21:57:36.919Z,24.80
2019-06-20T22:00:21.099Z,20.37
2019-06-20T22:02:49.528Z,23.25
2019-06-20T22:05:18.115Z,28.83
2019-06-20T22:07:46.554Z,21.00
2019-06-20T22:10:15.624Z,26.17
2019-06-20T22:12:44.064Z,20.93
2019-06-20T22:15:13.052Z,28.32
2019-06-20T22:17:41.482Z,28.27
2019-06-20T22:20:10.250Z,22.50
2019-06-20T22:22:38.684Z,23.60
2019-06-20T22:25:09.832Z,22.85
2019-06-20T22:27:38.265Z,21.57
2019-06-20T22:30:14.697Z,28.25
2019-06-20T22:32:43.135Z,22.00
2019-06-20T22:35:11.901Z,23.67
2019-06-20T22:37:40.349Z,20.00
2019-06-20T22:40:09.807Z,19.32
2019-06-20T22:42:38.494Z,19.67
2019-06-20T22:45:07.582Z,22.55
2019-06-20T22:47:36.022Z,19.95
2019-06-20T22:50:07.498Z,16.37
2019-06-20T22:52:35.967Z,25.40
2019-06-20T22:55:06.982Z,22.77
2019-06-20T22:57:35.415Z,18.83
2019-06-20T23:00:08.953Z,16.23
2019-06-20T23:02:37.389Z,14.53
2019-06-20T23:05:09.928Z,16.77
2019-06-20T23:07:38.414Z,12.03
2019-06-20T23:10:11.372Z,15.32
2019-06-20T23:12:39.926Z,12.35
2019-06-20T23:15:09.005Z,13.03
2019-06-20T23:17:37.488Z,10.90
2019-06-20T23:20:07.217Z,14.95
2019-06-20T23:22:35.667Z,15.00
2019-06-20T23:25:06.985Z,11.15
2019-06-20T23:27:35.411Z,17.40
2019-06-20T23:30:09.190Z,14.03
2019-06-20T23:32:37.656Z,11.00
2019-06-20T23:35:07.041Z,10.48
2019-06-20T23:37:35.547Z,14.80
2019-06-20T23:40:08.307Z,12.85
2019-06-20T23:42:36.834Z,14.53
2019-06-20T23:45:07.735Z,10.70
2019-06-20T23:47:36.412Z,17.07
2019-06-20T23:50:09.536Z,13.35
2019-06-20T23:52:54.703Z,18.27
2019-06-20T23:55:23.154Z,19.67
2019-06-20T23:57:51.609Z,12.20
